sensor_id;sensor_type;location;lat;lon;timestamp;P1;durP1;ratioP1;P2;durP2;ratioP2
9288;SDS011;4683;50.864;12.086;2023-08-01T00:05:08;3.47;;;3.17;;
9288;SDS011;4683;50.864;12.086;2023-08-01T00:07:36;4.87;;;3.00;;
9288;SDS011;4683;50.864;12.086;2023-08-01T00:10:06;3.47;;;3.17;;
9288;SDS011;4683;50.864;12.086;2023-08-01T00:12:36;4.20;;;3.20;;
9288;SDS011;4683;50.864;12.086;2023-08-01T00:15:06;3.70;;;2.87;;
9288;SDS011;4683;50.864;12.086;2023-08-01T00:17:36;6.87;;;3.30;;
9288;SDS011;4683;50.864;12.086;2023-08-01T00:20:05;3.50;;;3.20;;
9288;SDS011;4683;50.864;12.086;2023-08-01T00:22:34;4.20;;;3.40;;
9288;SDS011;4683;50.864;12.086;2023-08-01T00:25:03;3.40;;;3.00;;
9288;SDS011;4683;50.864;12.086;2023-08-01T00:27:41;3.33;;;3.00;;
9288;SDS011;4683;50.864;12.086;2023-08-01T00:30:12;3.33;;;3.03;;
9288;SDS011;4683;50.864;12.086;2023-08-01T00:32:41;4.07;;;3.30;;
9288;SDS011;4683;50.864;12.086;2023-08-01T00:35:10;3.47;;;3.17;;
9288;SDS011;4683;50.864;12.086;2023-08-01T00:37:38;4.73;;;3.27;;
9288;SDS011;4683;50.864;12.086;2023-08-01T00:40:08;5.97;;;3.13;;
9288;SDS011;4683;50.864;12.086;2023-08-01T00:42:37;4.37;;;3.50;;
9288;SDS011;4683;50.864;12.086;2023-08-01T00:45:08;4.23;;;3.00;;
9288;SDS011;4683;50.864;12.086;2023-08-01T00:47:37;3.53;;;3.23;;
9288;SDS011;4683;50.864;12.086;2023-08-01T00:50:06;3.90;;;3.37;;
9288;SDS011;4683;50.864;12.086;2023-08-01T00:52:36;4.33;;;3.57;;
9288;SDS011;4683;50.864;12.086;2023-08-01T00:55:04;3.57;;;3.27;;
9288;SDS011;4683;50.864;12.086;2023-08-01T00:57:35;3.37;;;3.07;;
9288;SDS011;4683;50.864;12.086;2023-08-01T01:03:45;3.70;;;3.10;;
9288;SDS011;4683;50.864;12.086;2023-08-01T01:06:16;2.90;;;2.67;;
9288;SDS011;4683;50.864;12.086;2023-08-01T01:08:49;2.90;;;2.70;;
9288;SDS011;4683;50.864;12.086;2023-08-01T01:11:20;3.90;;;2.97;;
9288;SDS011;4683;50.864;12.086;2023-08-01T01:13:51;6.20;;;2.90;;
9288;SDS011;4683;50.864;12.086;2023-08-01T01:16:20;2.80;;;2.60;;
9288;SDS011;4683;50.864;12.086;2023-08-01T01:18:48;4.07;;;2.80;;
9288;SDS011;4683;50.864;12.086;2023-08-01T01:21:27;3.87;;;2.90;;
9288;SDS011;4683;50.864;12.086;2023-08-01T01:24:13;3.23;;;2.93;;
9288;SDS011;4683;50.864;12.086;2023-08-01T01:26:43;3.20;;;2.90;;
9288;SDS011;4683;50.864;12.086;2023-08-01T01:29:12;3.37;;;3.07;;
9288;SDS011;4683;50.864;12.086;2023-08-01T01:31:41;3.30;;;3.00;;
9288;SDS011;4683;50.864;12.086;2023-08-01T01:34:10;3.77;;;2.93;;
9288;SDS011;4683;50.864;12.086;2023-08-01T01:36:40;3.20;;;2.90;;
9288;SDS011;4683;50.864;12.086;2023-08-01T01:39:08;3.50;;;2.60;;
9288;SDS011;4683;50.864;12.086;2023-08-01T01:41:37;3.30;;;2.70;;
9288;SDS011;4683;50.864;12.086;2023-08-01T01:44:05;3.50;;;2.93;;
9288;SDS011;4683;50.864;12.086;2023-08-01T01:46:35;2.23;;;2.03;;
9288;SDS011;4683;50.864;12.086;2023-08-01T01:49:03;3.00;;;2.50;;
9288;SDS011;4683;50.864;12.086;2023-08-01T01:51:32;3.80;;;2.80;;
9288;SDS011;4683;50.864;12.086;2023-08-01T01:54:02;2.90;;;2.60;;
9288;SDS011;4683;50.864;12.086;2023-08-01T01:56:30;3.60;;;3.10;;
9288;SDS011;4683;50.864;12.086;2023-08-01T01:59:00;2.77;;;2.57;;
9288;SDS011;4683;50.864;12.086;2023-08-01T02:01:28;2.67;;;2.47;;
9288;SDS011;4683;50.864;12.086;2023-08-01T02:03:57;4.30;;;3.00;;
9288;SDS011;4683;50.864;12.086;2023-08-01T02:06:25;3.03;;;2.73;;
9288;SDS011;4683;50.864;12.086;2023-08-01T02:08:54;2.77;;;2.50;;
9288;SDS011;4683;50.864;12.086;2023-08-01T02:11:27;4.07;;;3.67;;
9288;SDS011;4683;50.864;12.086;2023-08-01T02:13:55;3.50;;;2.90;;
9288;SDS011;4683;50.864;12.086;2023-08-01T02:16:24;3.20;;;2.70;;
9288;SDS011;4683;50.864;12.086;2023-08-01T02:18:52;3.20;;;2.90;;
9288;SDS011;4683;50.864;12.086;2023-08-01T02:21:20;3.13;;;2.60;;
9288;SDS011;4683;50.864;12.086;2023-08-01T02:23:48;3.33;;;2.80;;
9288;SDS011;4683;50.864;12.086;2023-08-01T02:26:19;3.80;;;3.17;;
9288;SDS011;4683;50.864;12.086;2023-08-01T02:28:51;3.10;;;2.80;;
9288;SDS011;4683;50.864;12.086;2023-08-01T02:31:19;2.83;;;2.63;;
9288;SDS011;4683;50.864;12.086;2023-08-01T02:33:47;3.40;;;3.10;;
9288;SDS011;4683;50.864;12.086;2023-08-01T02:36:15;3.00;;;2.70;;
9288;SDS011;4683;50.864;12.086;2023-08-01T02:38:43;2.90;;;2.60;;
9288;SDS011;4683;50.864;12.086;2023-08-01T02:41:12;3.00;;;2.70;;
9288;SDS011;4683;50.864;12.086;2023-08-01T02:43:40;3.03;;;2.73;;
9288;SDS011;4683;50.864;12.086;2023-08-01T02:46:11;3.03;;;2.50;;
9288;SDS011;4683;50.864;12.086;2023-08-01T02:48:39;3.70;;;2.53;;
9288;SDS011;4683;50.864;12.086;2023-08-01T02:51:08;3.07;;;2.63;;
9288;SDS011;4683;50.864;12.086;2023-08-01T02:53:36;3.43;;;2.90;;
9288;SDS011;4683;50.864;12.086;2023-08-01T02:56:06;2.50;;;2.30;;
9288;SDS011;4683;50.864;12.086;2023-08-01T02:58:35;3.77;;;2.40;;
9288;SDS011;4683;50.864;12.086;2023-08-01T03:05:12;3.23;;;2.53;;
9288;SDS011;4683;50.864;12.086;2023-08-01T03:07:40;3.40;;;3.10;;
9288;SDS011;4683;50.864;12.086;2023-08-01T03:10:08;2.80;;;2.60;;
9288;SDS011;4683;50.864;12.086;2023-08-01T03:12:37;3.50;;;3.13;;
9288;SDS011;4683;50.864;12.086;2023-08-01T03:15:07;3.20;;;2.90;;
9288;SDS011;4683;50.864;12.086;2023-08-01T03:17:36;2.67;;;2.47;;
9288;SDS011;4683;50.864;12.086;2023-08-01T03:20:05;3.93;;;2.90;;
9288;SDS011;4683;50.864;12.086;2023-08-01T03:26:44;5.00;;;2.97;;
9288;SDS011;4683;50.864;12.086;2023-08-01T03:29:13;3.00;;;2.70;;
9288;SDS011;4683;50.864;12.086;2023-08-01T03:31:41;2.87;;;2.60;;
9288;SDS011;4683;50.864;12.086;2023-08-01T03:34:10;2.53;;;2.33;;
9288;SDS011;4683;50.864;12.086;2023-08-01T03:36:39;3.07;;;2.77;;
9288;SDS011;4683;50.864;12.086;2023-08-01T03:43:14;3.00;;;2.80;;
9288;SDS011;4683;50.864;12.086;2023-08-01T03:45:42;2.70;;;2.43;;
9288;SDS011;4683;50.864;12.086;2023-08-01T03:48:11;3.00;;;2.63;;
9288;SDS011;4683;50.864;12.086;2023-08-01T03:50:39;3.10;;;2.80;;
9288;SDS011;4683;50.864;12.086;2023-08-01T03:53:07;3.00;;;2.80;;
9288;SDS011;4683;50.864;12.086;2023-08-01T03:55:36;2.63;;;2.43;;
9288;SDS011;4683;50.864;12.086;2023-08-01T03:58:05;2.70;;;2.50;;
9288;SDS011;4683;50.864;12.086;2023-08-01T04:00:34;2.80;;;2.50;;
9288;SDS011;4683;50.864;12.086;2023-08-01T04:03:02;3.70;;;2.30;;
9288;SDS011;4683;50.864;12.086;2023-08-01T04:05:30;2.80;;;2.60;;
9288;SDS011;4683;50.864;12.086;2023-08-01T04:07:59;4.97;;;3.17;;
9288;SDS011;4683;50.864;12.086;2023-08-01T04:10:27;3.00;;;2.67;;
9288;SDS011;4683;50.864;12.086;2023-08-01T04:12:55;2.90;;;2.67;;
9288;SDS011;4683;50.864;12.086;2023-08-01T04:15:23;3.37;;;2.70;;
9288;SDS011;4683;50.864;12.086;2023-08-01T04:17:53;3.13;;;2.83;;
9288;SDS011;4683;50.864;12.086;2023-08-01T04:20:21;2.43;;;2.23;;
9288;SDS011;4683;50.864;12.086;2023-08-01T04:22:49;2.20;;;2.00;;
9288;SDS011;4683;50.864;12.086;2023-08-01T04:25:18;2.37;;;2.17;;
9288;SDS011;4683;50.864;12.086;2023-08-01T04:27:46;2.07;;;1.97;;
9288;SDS011;4683;50.864;12.086;2023-08-01T04:30:14;2.67;;;1.93;;
9288;SDS011;4683;50.864;12.086;2023-08-01T04:32:42;1.93;;;1.83;;
9288;SDS011;4683;50.864;12.086;2023-08-01T04:35:12;2.57;;;2.00;;
9288;SDS011;4683;50.864;12.086;2023-08-01T04:37:40;2.20;;;2.10;;
9288;SDS011;4683;50.864;12.086;2023-08-01T04:40:09;2.50;;;2.30;;
9288;SDS011;4683;50.864;12.086;2023-08-01T04:42:38;1.97;;;1.87;;
9288;SDS011;4683;50.864;12.086;2023-08-01T04:45:06;2.27;;;2.07;;
9288;SDS011;4683;50.864;12.086;2023-08-01T04:47:35;2.20;;;2.00;;
9288;SDS011;4683;50.864;12.086;2023-08-01T04:50:04;2.33;;;1.83;;
9288;SDS011;4683;50.864;12.086;2023-08-01T04:52:35;2.47;;;1.90;;
9288;SDS011;4683;50.864;12.086;2023-08-01T04:55:03;2.33;;;1.80;;
9288;SDS011;4683;50.864;12.086;2023-08-01T04:57:36;2.13;;;2.03;;
9288;SDS011;4683;50.864;12.086;2023-08-01T05:00:06;2.90;;;2.70;;
9288;SDS011;4683;50.864;12.086;2023-08-01T05:02:36;2.67;;;2.47;;
9288;SDS011;4683;50.864;12.086;2023-08-01T05:05:05;2.63;;;1.80;;
9288;SDS011;4683;50.864;12.086;2023-08-01T05:07:35;2.37;;;1.70;;
9288;SDS011;4683;50.864;12.086;2023-08-01T05:10:04;1.57;;;1.33;;
9288;SDS011;4683;50.864;12.086;2023-08-01T05:12:33;2.53;;;2.00;;
9288;SDS011;4683;50.864;12.086;2023-08-01T05:15:01;2.30;;;1.50;;
9288;SDS011;4683;50.864;12.086;2023-08-01T05:17:30;4.47;;;1.67;;
9288;SDS011;4683;50.864;12.086;2023-08-01T05:19:58;2.10;;;1.80;;
9288;SDS011;4683;50.864;12.086;2023-08-01T05:22:29;2.27;;;1.47;;
9288;SDS011;4683;50.864;12.086;2023-08-01T05:24:59;1.40;;;1.30;;
9288;SDS011;4683;50.864;12.086;2023-08-01T05:27:29;2.23;;;1.90;;
9288;SDS011;4683;50.864;12.086;2023-08-01T05:29:59;2.20;;;1.83;;
9288;SDS011;4683;50.864;12.086;2023-08-01T05:32:28;2.10;;;1.90;;
9288;SDS011;4683;50.864;12.086;2023-08-01T05:34:56;2.97;;;2.10;;
9288;SDS011;4683;50.864;12.086;2023-08-01T05:37:24;2.43;;;1.80;;
9288;SDS011;4683;50.864;12.086;2023-08-01T05:39:52;2.73;;;1.93;;
9288;SDS011;4683;50.864;12.086;2023-08-01T05:42:22;4.83;;;2.07;;
9288;SDS011;4683;50.864;12.086;2023-08-01T05:44:50;3.80;;;1.90;;
9288;SDS011;4683;50.864;12.086;2023-08-01T05:47:18;2.73;;;2.00;;
9288;SDS011;4683;50.864;12.086;2023-08-01T05:49:48;2.17;;;1.90;;
9288;SDS011;4683;50.864;12.086;2023-08-01T05:52:16;2.27;;;1.70;;
9288;SDS011;4683;50.864;12.086;2023-08-01T05:54:44;2.40;;;1.87;;
9288;SDS011;4683;50.864;12.086;2023-08-01T05:57:13;2.87;;;2.30;;
9288;SDS011;4683;50.864;12.086;2023-08-01T05:59:42;1.53;;;1.27;;
9288;SDS011;4683;50.864;12.086;2023-08-01T06:02:11;1.33;;;1.33;;
9288;SDS011;4683;50.864;12.086;2023-08-01T06:04:40;3.00;;;2.10;;
9288;SDS011;4683;50.864;12.086;2023-08-01T06:07:08;2.03;;;1.70;;
9288;SDS011;4683;50.864;12.086;2023-08-01T06:09:36;2.07;;;1.80;;
9288;SDS011;4683;50.864;12.086;2023-08-01T06:12:06;20.87;;;5.60;;
9288;SDS011;4683;50.864;12.086;2023-08-01T06:14:34;11.30;;;3.13;;
9288;SDS011;4683;50.864;12.086;2023-08-01T06:17:04;3.13;;;1.97;;
9288;SDS011;4683;50.864;12.086;2023-08-01T06:19:33;9.10;;;2.77;;
9288;SDS011;4683;50.864;12.086;2023-08-01T06:22:01;2.27;;;2.00;;
9288;SDS011;4683;50.864;12.086;2023-08-01T06:24:31;4.17;;;1.97;;
9288;SDS011;4683;50.864;12.086;2023-08-01T06:26:59;2.03;;;1.87;;
9288;SDS011;4683;50.864;12.086;2023-08-01T06:29:27;2.17;;;1.90;;
9288;SDS011;4683;50.864;12.086;2023-08-01T06:31:55;5.10;;;2.00;;
9288;SDS011;4683;50.864;12.086;2023-08-01T06:34:25;10.57;;;3.80;;
9288;SDS011;4683;50.864;12.086;2023-08-01T06:36:53;9.73;;;3.30;;
9288;SDS011;4683;50.864;12.086;2023-08-01T06:39:22;2.53;;;1.90;;
9288;SDS011;4683;50.864;12.086;2023-08-01T06:41:50;2.27;;;1.73;;
9288;SDS011;4683;50.864;12.086;2023-08-01T06:44:18;1.47;;;1.37;;
9288;SDS011;4683;50.864;12.086;2023-08-01T06:46:46;2.47;;;1.83;;
9288;SDS011;4683;50.864;12.086;2023-08-01T06:49:17;8.60;;;2.77;;
9288;SDS011;4683;50.864;12.086;2023-08-01T06:51:47;5.20;;;2.00;;
9288;SDS011;4683;50.864;12.086;2023-08-01T06:54:15;2.10;;;1.63;;
9288;SDS011;4683;50.864;12.086;2023-08-01T06:56:43;18.37;;;3.90;;
9288;SDS011;4683;50.864;12.086;2023-08-01T06:59:13;4.60;;;2.37;;
9288;SDS011;4683;50.864;12.086;2023-08-01T07:01:41;3.23;;;1.50;;
9288;SDS011;4683;50.864;12.086;2023-08-01T07:04:10;1.40;;;1.30;;
9288;SDS011;4683;50.864;12.086;2023-08-01T07:06:39;2.00;;;1.27;;
9288;SDS011;4683;50.864;12.086;2023-08-01T07:09:09;1.30;;;1.20;;
9288;SDS011;4683;50.864;12.086;2023-08-01T07:11:37;3.30;;;1.60;;
9288;SDS011;4683;50.864;12.086;2023-08-01T07:14:05;2.33;;;1.40;;
9288;SDS011;4683;50.864;12.086;2023-08-01T07:16:34;1.97;;;1.63;;
9288;SDS011;4683;50.864;12.086;2023-08-01T07:19:02;1.57;;;1.47;;
9288;SDS011;4683;50.864;12.086;2023-08-01T07:21:30;2.13;;;1.40;;
9288;SDS011;4683;50.864;12.086;2023-08-01T07:23:59;2.40;;;1.50;;
9288;SDS011;4683;50.864;12.086;2023-08-01T07:26:28;2.57;;;1.50;;
9288;SDS011;4683;50.864;12.086;2023-08-01T07:28:56;2.70;;;1.90;;
9288;SDS011;4683;50.864;12.086;2023-08-01T07:31:24;1.80;;;1.70;;
9288;SDS011;4683;50.864;12.086;2023-08-01T07:33:54;3.00;;;2.03;;
9288;SDS011;4683;50.864;12.086;2023-08-01T07:36:22;2.80;;;2.20;;
9288;SDS011;4683;50.864;12.086;2023-08-01T07:38:51;3.53;;;3.13;;
9288;SDS011;4683;50.864;12.086;2023-08-01T07:41:21;4.70;;;4.30;;
9288;SDS011;4683;50.864;12.086;2023-08-01T07:43:51;2.90;;;2.30;;
9288;SDS011;4683;50.864;12.086;2023-08-01T07:46:22;2.40;;;2.20;;
9288;SDS011;4683;50.864;12.086;2023-08-01T07:48:50;2.43;;;2.23;;
9288;SDS011;4683;50.864;12.086;2023-08-01T07:51:19;4.73;;;2.80;;
9288;SDS011;4683;50.864;12.086;2023-08-01T07:53:47;2.23;;;2.03;;
9288;SDS011;4683;50.864;12.086;2023-08-01T07:56:17;2.40;;;2.20;;
9288;SDS011;4683;50.864;12.086;2023-08-01T07:58:46;2.03;;;1.83;;
9288;SDS011;4683;50.864;12.086;2023-08-01T08:01:15;1.93;;;1.83;;
9288;SDS011;4683;50.864;12.086;2023-08-01T08:03:44;2.30;;;2.10;;
9288;SDS011;4683;50.864;12.086;2023-08-01T08:06:12;2.23;;;2.03;;
9288;SDS011;4683;50.864;12.086;2023-08-01T08:08:40;3.00;;;2.03;;
9288;SDS011;4683;50.864;12.086;2023-08-01T08:11:08;6.10;;;2.30;;
9288;SDS011;4683;50.864;12.086;2023-08-01T08:13:37;2.10;;;1.90;;
9288;SDS011;4683;50.864;12.086;2023-08-01T08:16:05;2.70;;;2.03;;
9288;SDS011;4683;50.864;12.086;2023-08-01T08:18:35;2.10;;;1.90;;
9288;SDS011;4683;50.864;12.086;2023-08-01T08:21:03;2.07;;;1.90;;
9288;SDS011;4683;50.864;12.086;2023-08-01T08:23:32;2.30;;;1.90;;
9288;SDS011;4683;50.864;12.086;2023-08-01T08:26:00;2.87;;;2.67;;
9288;SDS011;4683;50.864;12.086;2023-08-01T08:28:30;2.10;;;1.90;;
9288;SDS011;4683;50.864;12.086;2023-08-01T08:31:00;3.20;;;2.90;;
9288;SDS011;4683;50.864;12.086;2023-08-01T08:33:29;2.10;;;1.90;;
9288;SDS011;4683;50.864;12.086;2023-08-01T08:35:59;3.50;;;2.83;;
9288;SDS011;4683;50.864;12.086;2023-08-01T08:38:27;2.00;;;1.90;;
9288;SDS011;4683;50.864;12.086;2023-08-01T08:40:59;2.43;;;1.70;;
9288;SDS011;4683;50.864;12.086;2023-08-01T08:43:35;1.67;;;1.57;;
9288;SDS011;4683;50.864;12.086;2023-08-01T08:46:04;2.10;;;1.90;;
9288;SDS011;4683;50.864;12.086;2023-08-01T08:48:32;1.73;;;1.63;;
9288;SDS011;4683;50.864;12.086;2023-08-01T08:51:03;2.03;;;1.80;;
9288;SDS011;4683;50.864;12.086;2023-08-01T08:53:34;2.00;;;1.57;;
9288;SDS011;4683;50.864;12.086;2023-08-01T08:56:03;2.50;;;2.30;;
9288;SDS011;4683;50.864;12.086;2023-08-01T08:58:35;2.97;;;1.87;;
9288;SDS011;4683;50.864;12.086;2023-08-01T09:01:05;2.37;;;1.20;;
9288;SDS011;4683;50.864;12.086;2023-08-01T09:03:35;3.30;;;1.30;;
9288;SDS011;4683;50.864;12.086;2023-08-01T09:06:07;1.60;;;1.20;;
9288;SDS011;4683;50.864;12.086;2023-08-01T09:08:39;2.33;;;1.30;;
9288;SDS011;4683;50.864;12.086;2023-08-01T09:11:11;1.13;;;1.10;;
9288;SDS011;4683;50.864;12.086;2023-08-01T09:13:39;1.30;;;1.20;;
9288;SDS011;4683;50.864;12.086;2023-08-01T09:16:07;1.43;;;0.80;;
9288;SDS011;4683;50.864;12.086;2023-08-01T09:18:46;1.57;;;1.40;;
9288;SDS011;4683;50.864;12.086;2023-08-01T09:21:18;2.00;;;1.33;;
9288;SDS011;4683;50.864;12.086;2023-08-01T09:23:47;1.83;;;1.23;;
9288;SDS011;4683;50.864;12.086;2023-08-01T09:26:19;1.03;;;0.93;;
9288;SDS011;4683;50.864;12.086;2023-08-01T09:28:55;0.97;;;0.87;;
9288;SDS011;4683;50.864;12.086;2023-08-01T09:31:26;0.80;;;0.80;;
9288;SDS011;4683;50.864;12.086;2023-08-01T09:33:55;1.30;;;0.70;;
9288;SDS011;4683;50.864;12.086;2023-08-01T09:36:26;0.70;;;0.70;;
9288;SDS011;4683;50.864;12.086;2023-08-01T09:38:57;1.33;;;1.23;;
9288;SDS011;4683;50.864;12.086;2023-08-01T09:41:26;0.73;;;0.73;;
9288;SDS011;4683;50.864;12.086;2023-08-01T09:43:58;1.00;;;1.00;;
9288;SDS011;4683;50.864;12.086;2023-08-01T09:46:26;1.30;;;1.00;;
9288;SDS011;4683;50.864;12.086;2023-08-01T09:48:54;0.90;;;0.80;;
9288;SDS011;4683;50.864;12.086;2023-08-01T09:51:45;0.70;;;0.70;;
9288;SDS011;4683;50.864;12.086;2023-08-01T09:54:15;1.67;;;0.80;;
9288;SDS011;4683;50.864;12.086;2023-08-01T09:56:45;0.73;;;0.73;;
9288;SDS011;4683;50.864;12.086;2023-08-01T09:59:17;1.10;;;0.83;;
9288;SDS011;4683;50.864;12.086;2023-08-01T10:01:48;0.90;;;0.90;;
9288;SDS011;4683;50.864;12.086;2023-08-01T10:04:18;0.57;;;0.57;;
9288;SDS011;4683;50.864;12.086;2023-08-01T10:06:52;0.70;;;0.70;;
9288;SDS011;4683;50.864;12.086;2023-08-01T10:09:24;2.67;;;1.10;;
9288;SDS011;4683;50.864;12.086;2023-08-01T10:11:53;0.97;;;0.60;;
9288;SDS011;4683;50.864;12.086;2023-08-01T10:14:25;1.33;;;0.50;;
9288;SDS011;4683;50.864;12.086;2023-08-01T10:16:54;1.47;;;0.67;;
9288;SDS011;4683;50.864;12.086;2023-08-01T10:19:23;0.47;;;0.40;;
9288;SDS011;4683;50.864;12.086;2023-08-01T10:21:54;1.60;;;1.50;;
9288;SDS011;4683;50.864;12.086;2023-08-01T10:24:23;3.00;;;2.73;;
9288;SDS011;4683;50.864;12.086;2023-08-01T10:26:52;3.70;;;3.40;;
9288;SDS011;4683;50.864;12.086;2023-08-01T10:29:20;3.97;;;3.67;;
9288;SDS011;4683;50.864;12.086;2023-08-01T10:31:51;3.87;;;3.57;;
9288;SDS011;4683;50.864;12.086;2023-08-01T10:34:21;4.17;;;3.77;;
9288;SDS011;4683;50.864;12.086;2023-08-01T10:36:55;5.43;;;4.53;;
9288;SDS011;4683;50.864;12.086;2023-08-01T10:39:24;4.90;;;4.50;;
9288;SDS011;4683;50.864;12.086;2023-08-01T10:41:58;5.37;;;4.90;;
9288;SDS011;4683;50.864;12.086;2023-08-01T10:44:44;5.20;;;4.70;;
9288;SDS011;4683;50.864;12.086;2023-08-01T10:47:13;5.40;;;5.00;;
9288;SDS011;4683;50.864;12.086;2023-08-01T10:49:51;6.37;;;5.57;;
9288;SDS011;4683;50.864;12.086;2023-08-01T10:52:22;5.50;;;5.07;;
9288;SDS011;4683;50.864;12.086;2023-08-01T10:54:57;6.30;;;5.70;;
9288;SDS011;4683;50.864;12.086;2023-08-01T10:57:26;6.23;;;5.63;;
9288;SDS011;4683;50.864;12.086;2023-08-01T10:59:56;7.13;;;6.43;;
9288;SDS011;4683;50.864;12.086;2023-08-01T11:02:26;5.77;;;5.27;;
9288;SDS011;4683;50.864;12.086;2023-08-01T11:04:56;7.37;;;6.67;;
9288;SDS011;4683;50.864;12.086;2023-08-01T11:07:27;6.33;;;5.40;;
9288;SDS011;4683;50.864;12.086;2023-08-01T11:10:05;6.73;;;6.13;;
9288;SDS011;4683;50.864;12.086;2023-08-01T11:12:36;6.27;;;5.77;;
9288;SDS011;4683;50.864;12.086;2023-08-01T11:15:06;5.87;;;5.37;;
9288;SDS011;4683;50.864;12.086;2023-08-01T11:17:36;6.47;;;5.80;;
9288;SDS011;4683;50.864;12.086;2023-08-01T11:20:05;6.63;;;6.03;;
9288;SDS011;4683;50.864;12.086;2023-08-01T11:22:37;7.10;;;6.00;;
9288;SDS011;4683;50.864;12.086;2023-08-01T11:25:16;4.90;;;4.50;;
9288;SDS011;4683;50.864;12.086;2023-08-01T11:27:44;5.37;;;4.87;;
9288;SDS011;4683;50.864;12.086;2023-08-01T11:30:13;5.77;;;5.23;;
9288;SDS011;4683;50.864;12.086;2023-08-01T11:32:41;3.77;;;3.47;;
9288;SDS011;4683;50.864;12.086;2023-08-01T11:35:16;4.30;;;3.90;;
9288;SDS011;4683;50.864;12.086;2023-08-01T11:37:46;4.17;;;3.77;;
9288;SDS011;4683;50.864;12.086;2023-08-01T11:40:17;4.20;;;3.77;;
9288;SDS011;4683;50.864;12.086;2023-08-01T11:42:48;3.93;;;3.60;;
9288;SDS011;4683;50.864;12.086;2023-08-01T11:45:23;4.27;;;3.60;;
9288;SDS011;4683;50.864;12.086;2023-08-01T11:47:51;4.30;;;3.90;;
9288;SDS011;4683;50.864;12.086;2023-08-01T11:50:23;3.70;;;3.40;;
9288;SDS011;4683;50.864;12.086;2023-08-01T11:52:54;4.20;;;3.53;;
9288;SDS011;4683;50.864;12.086;2023-08-01T11:55:23;4.43;;;4.03;;
9288;SDS011;4683;50.864;12.086;2023-08-01T11:57:57;3.00;;;2.67;;
9288;SDS011;4683;50.864;12.086;2023-08-01T12:00:27;3.43;;;2.80;;
9288;SDS011;4683;50.864;12.086;2023-08-01T12:03:05;2.80;;;2.60;;
9288;SDS011;4683;50.864;12.086;2023-08-01T12:05:38;3.87;;;3.23;;
9288;SDS011;4683;50.864;12.086;2023-08-01T12:08:12;3.77;;;3.10;;
9288;SDS011;4683;50.864;12.086;2023-08-01T12:10:42;3.50;;;3.00;;
9288;SDS011;4683;50.864;12.086;2023-08-01T12:13:22;3.40;;;2.90;;
9288;SDS011;4683;50.864;12.086;2023-08-01T12:15:52;3.23;;;2.93;;
9288;SDS011;4683;50.864;12.086;2023-08-01T12:18:23;3.30;;;3.10;;
9288;SDS011;4683;50.864;12.086;2023-08-01T12:20:52;3.70;;;3.40;;
9288;SDS011;4683;50.864;12.086;2023-08-01T12:23:22;2.90;;;2.70;;
9288;SDS011;4683;50.864;12.086;2023-08-01T12:25:50;3.30;;;3.07;;
9288;SDS011;4683;50.864;12.086;2023-08-01T12:28:18;3.20;;;3.00;;
9288;SDS011;4683;50.864;12.086;2023-08-01T12:30:46;3.13;;;2.93;;
9288;SDS011;4683;50.864;12.086;2023-08-01T12:33:16;3.30;;;3.00;;
9288;SDS011;4683;50.864;12.086;2023-08-01T12:35:45;3.60;;;3.07;;
9288;SDS011;4683;50.864;12.086;2023-08-01T12:38:14;3.40;;;3.10;;
9288;SDS011;4683;50.864;12.086;2023-08-01T12:40:44;2.80;;;2.60;;
9288;SDS011;4683;50.864;12.086;2023-08-01T12:43:12;2.57;;;2.20;;
9288;SDS011;4683;50.864;12.086;2023-08-01T12:45:42;2.83;;;2.33;;
9288;SDS011;4683;50.864;12.086;2023-08-01T12:48:11;2.73;;;2.53;;
9288;SDS011;4683;50.864;12.086;2023-08-01T12:50:42;2.63;;;1.83;;
9288;SDS011;4683;50.864;12.086;2023-08-01T12:53:15;2.47;;;2.20;;
9288;SDS011;4683;50.864;12.086;2023-08-01T12:55:45;2.47;;;2.27;;
9288;SDS011;4683;50.864;12.086;2023-08-01T12:58:15;2.27;;;2.07;;
9288;SDS011;4683;50.864;12.086;2023-08-01T13:00:43;2.50;;;2.40;;
9288;SDS011;4683;50.864;12.086;2023-08-01T13:03:12;2.63;;;2.43;;
9288;SDS011;4683;50.864;12.086;2023-08-01T13:05:41;2.27;;;2.13;;
9288;SDS011;4683;50.864;12.086;2023-08-01T13:08:09;2.23;;;2.03;;
9288;SDS011;4683;50.864;12.086;2023-08-01T13:10:38;3.17;;;2.67;;
9288;SDS011;4683;50.864;12.086;2023-08-01T13:13:08;3.73;;;2.60;;
9288;SDS011;4683;50.864;12.086;2023-08-01T13:15:36;1.83;;;1.73;;
9288;SDS011;4683;50.864;12.086;2023-08-01T13:18:05;2.13;;;2.03;;
9288;SDS011;4683;50.864;12.086;2023-08-01T13:20:33;2.30;;;2.10;;
9288;SDS011;4683;50.864;12.086;2023-08-01T13:23:01;1.63;;;1.53;;
9288;SDS011;4683;50.864;12.086;2023-08-01T13:25:30;3.07;;;2.73;;
9288;SDS011;4683;50.864;12.086;2023-08-01T13:27:58;2.40;;;1.90;;
9288;SDS011;4683;50.864;12.086;2023-08-01T13:30:28;2.80;;;2.60;;
9288;SDS011;4683;50.864;12.086;2023-08-01T13:32:56;2.63;;;2.43;;
9288;SDS011;4683;50.864;12.086;2023-08-01T13:35:25;3.00;;;1.93;;
9288;SDS011;4683;50.864;12.086;2023-08-01T13:37:53;2.00;;;1.90;;
9288;SDS011;4683;50.864;12.086;2023-08-01T13:40:22;3.57;;;2.07;;
9288;SDS011;4683;50.864;12.086;2023-08-01T13:42:52;2.10;;;2.00;;
9288;SDS011;4683;50.864;12.086;2023-08-01T13:45:20;2.53;;;2.33;;
9288;SDS011;4683;50.864;12.086;2023-08-01T13:47:57;2.40;;;2.20;;
9288;SDS011;4683;50.864;12.086;2023-08-01T13:50:28;2.70;;;2.50;;
9288;SDS011;4683;50.864;12.086;2023-08-01T13:52:58;3.07;;;2.60;;
9288;SDS011;4683;50.864;12.086;2023-08-01T13:55:28;2.70;;;2.50;;
9288;SDS011;4683;50.864;12.086;2023-08-01T13:57:56;2.40;;;2.20;;
9288;SDS011;4683;50.864;12.086;2023-08-01T14:00:24;2.60;;;2.40;;
9288;SDS011;4683;50.864;12.086;2023-08-01T14:02:53;2.13;;;2.00;;
9288;SDS011;4683;50.864;12.086;2023-08-01T14:05:25;2.87;;;2.50;;
9288;SDS011;4683;50.864;12.086;2023-08-01T14:07:53;3.53;;;2.80;;
9288;SDS011;4683;50.864;12.086;2023-08-01T14:10:22;2.47;;;2.27;;
9288;SDS011;4683;50.864;12.086;2023-08-01T14:12:50;2.97;;;2.70;;
9288;SDS011;4683;50.864;12.086;2023-08-01T14:15:19;2.73;;;2.53;;
9288;SDS011;4683;50.864;12.086;2023-08-01T14:17:48;2.70;;;2.50;;
9288;SDS011;4683;50.864;12.086;2023-08-01T14:20:19;2.90;;;2.70;;
9288;SDS011;4683;50.864;12.086;2023-08-01T14:22:47;3.10;;;2.80;;
9288;SDS011;4683;50.864;12.086;2023-08-01T14:25:15;2.80;;;2.60;;
9288;SDS011;4683;50.864;12.086;2023-08-01T14:27:44;3.27;;;3.03;;
9288;SDS011;4683;50.864;12.086;2023-08-01T14:30:12;2.63;;;2.43;;
9288;SDS011;4683;50.864;12.086;2023-08-01T14:32:40;2.93;;;2.73;;
9288;SDS011;4683;50.864;12.086;2023-08-01T14:35:08;3.37;;;2.90;;
9288;SDS011;4683;50.864;12.086;2023-08-01T14:37:39;3.27;;;2.63;;
9288;SDS011;4683;50.864;12.086;2023-08-01T14:40:13;2.60;;;2.40;;
9288;SDS011;4683;50.864;12.086;2023-08-01T14:42:42;3.40;;;3.10;;
9288;SDS011;4683;50.864;12.086;2023-08-01T14:45:10;4.77;;;2.87;;
9288;SDS011;4683;50.864;12.086;2023-08-01T14:47:39;3.00;;;2.67;;
9288;SDS011;4683;50.864;12.086;2023-08-01T14:50:09;2.67;;;2.47;;
9288;SDS011;4683;50.864;12.086;2023-08-01T14:52:39;3.00;;;2.67;;
9288;SDS011;4683;50.864;12.086;2023-08-01T14:55:08;2.90;;;2.70;;
9288;SDS011;4683;50.864;12.086;2023-08-01T14:57:36;3.10;;;2.73;;
9288;SDS011;4683;50.864;12.086;2023-08-01T15:00:05;3.33;;;3.03;;
9288;SDS011;4683;50.864;12.086;2023-08-01T15:02:35;3.00;;;2.70;;
9288;SDS011;4683;50.864;12.086;2023-08-01T15:05:05;3.20;;;2.90;;
9288;SDS011;4683;50.864;12.086;2023-08-01T15:07:33;3.17;;;2.87;;
9288;SDS011;4683;50.864;12.086;2023-08-01T15:10:03;3.17;;;2.97;;
9288;SDS011;4683;50.864;12.086;2023-08-01T15:12:32;2.77;;;2.57;;
9288;SDS011;4683;50.864;12.086;2023-08-01T15:15:01;3.00;;;2.80;;
9288;SDS011;4683;50.864;12.086;2023-08-01T15:17:29;3.17;;;2.87;;
9288;SDS011;4683;50.864;12.086;2023-08-01T15:19:58;3.23;;;3.00;;
9288;SDS011;4683;50.864;12.086;2023-08-01T15:22:26;3.37;;;3.07;;
9288;SDS011;4683;50.864;12.086;2023-08-01T15:24:54;3.50;;;3.20;;
9288;SDS011;4683;50.864;12.086;2023-08-01T15:27:24;3.87;;;3.07;;
9288;SDS011;4683;50.864;12.086;2023-08-01T15:29:52;3.50;;;3.20;;
9288;SDS011;4683;50.864;12.086;2023-08-01T15:32:20;3.87;;;3.53;;
9288;SDS011;4683;50.864;12.086;2023-08-01T15:34:49;3.80;;;3.27;;